createdAt,value
2023-01-09T13:23:54.902Z,93.60
2023-01-09T13:26:26.882Z,91.20
2023-01-09T13:29:03.215Z,91.30
2023-01-09T13:32:11.228Z,91.40
2023-01-09T13:34:39.925Z,91.80
2023-01-09T13:37:24.252Z,91.70
2023-01-09T13:40:00.124Z,91.90
2023-01-09T13:42:39.130Z,91.70
2023-01-09T13:45:24.611Z,92.10
2023-01-09T13:48:39.881Z,91.90
2023-01-09T13:51:53.985Z,92.00
2023-01-09T13:55:01.755Z,91.80
2023-01-09T13:57:34.883Z,91.80
2023-01-09T14:00:44.133Z,91.90
2023-01-09T14:03:20.310Z,92.00
2023-01-09T14:06:21.528Z,92.20
2023-01-09T14:08:52.044Z,92.10
2023-01-09T14:11:27.453Z,92.30
2023-01-09T14:14:17.851Z,92.30
2023-01-09T14:16:46.170Z,92.40
2023-01-09T14:19:33.961Z,92.50
2023-01-09T14:22:04.160Z,92.70
2023-01-09T14:24:40.079Z,92.60
2023-01-09T14:27:48.385Z,92.70
2023-01-09T14:30:36.595Z,92.70
2023-01-09T14:33:25.835Z,93.10
2023-01-09T14:36:02.256Z,93.20
2023-01-09T14:38:33.430Z,93.30
2023-01-09T14:41:07.060Z,93.20
2023-01-09T14:43:46.600Z,92.90
2023-01-09T14:46:19.432Z,92.60
2023-01-09T14:49:00.133Z,92.40
2023-01-09T14:51:32.833Z,92.40
2023-01-09T14:54:02.156Z,92.20
2023-01-09T14:56:33.491Z,92.20
2023-01-09T14:59:12.788Z,92.30
2023-01-09T15:01:46.744Z,92.10
2023-01-09T15:04:27.369Z,92.00
2023-01-09T15:06:55.674Z,92.50
2023-01-09T15:09:27.730Z,92.50
2023-01-09T15:11:59.096Z,92.60
2023-01-09T15:14:33.138Z,92.50
2023-01-09T15:17:04.853Z,92.40
2023-01-09T15:19:33.179Z,92.40
2023-01-09T15:22:03.608Z,92.50
2023-01-09T15:24:34.513Z,92.40
2023-01-09T15:27:05.246Z,92.50
2023-01-09T15:29:33.288Z,92.60
2023-01-09T15:32:06.567Z,92.40
2023-01-09T15:34:35.172Z,92.60
2023-01-09T15:37:04.274Z,92.70
2023-01-09T15:39:39.084Z,92.30
2023-01-09T15:42:44.333Z,92.40
2023-01-09T15:45:24.950Z,92.40
2023-01-09T15:47:55.152Z,92.60
2023-01-09T15:50:28.504Z,92.80
2023-01-09T15:52:57.453Z,92.50
2023-01-09T15:55:35.211Z,92.60
2023-01-09T15:58:04.858Z,92.70
2023-01-09T16:00:44.008Z,93.00
2023-01-09T16:03:20.397Z,93.40
2023-01-09T16:05:52.463Z,94.00
2023-01-09T16:08:26.776Z,94.10
2023-01-09T16:10:57.844Z,94.40
2023-01-09T16:13:28.138Z,94.70
2023-01-09T16:15:58.348Z,95.00
2023-01-09T16:18:34.028Z,95.10
2023-01-09T16:21:07.542Z,95.40
2023-01-09T16:23:36.685Z,95.60
2023-01-09T16:26:07.777Z,95.80
2023-01-09T16:28:35.934Z,96.00
2023-01-09T16:31:08.303Z,96.10
2023-01-09T16:33:46.312Z,96.30
2023-01-09T16:36:16.891Z,96.50
2023-01-09T16:38:44.991Z,96.70
2023-01-09T16:41:34.478Z,96.80
2023-01-09T16:44:06.579Z,97.00
2023-01-09T16:46:38.136Z,97.00
2023-01-09T16:49:16.435Z,97.10
2023-01-09T16:51:44.529Z,97.20
2023-01-09T16:54:12.777Z,97.20
2023-01-09T16:56:42.414Z,97.30
2023-01-09T16:59:14.622Z,97.40
2023-01-09T17:01:43.487Z,97.50
2023-01-09T17:04:15.250Z,97.70
2023-01-09T17:06:44.575Z,97.90
2023-01-09T17:09:14.679Z,98.00
2023-01-09T17:11:43.267Z,98.00
2023-01-09T17:14:13.133Z,98.10
2023-01-09T17:16:43.438Z,98.00
2023-01-09T17:19:17.576Z,98.20
2023-01-09T17:21:45.829Z,98.30
2023-01-09T17:24:31.269Z,98.40
2023-01-09T17:27:17.914Z,98.70
2023-01-09T17:29:46.169Z,98.80
2023-01-09T17:32:16.250Z,98.80
2023-01-09T17:34:45.781Z,98.90
2023-01-09T17:37:16.335Z,98.90
2023-01-09T17:39:44.694Z,99.00
2023-01-09T17:42:13.191Z,99.00
2023-01-09T17:44:41.186Z,99.20
2023-01-09T17:47:34.986Z,99.30
2023-01-09T17:50:04.720Z,99.30
2023-01-09T17:52:33.248Z,99.50
2023-01-09T17:55:05.223Z,99.30
2023-01-09T17:57:34.004Z,99.30
2023-01-09T18:00:02.081Z,99.00
2023-01-09T18:02:32.892Z,99.30
2023-01-09T18:05:01.007Z,99.00
2023-01-09T18:07:30.327Z,99.00
2023-01-09T18:09:58.862Z,99.00
2023-01-09T18:12:27.059Z,99.10
2023-01-09T18:14:55.108Z,99.00
2023-01-09T18:17:23.182Z,98.90
2023-01-09T18:19:51.206Z,98.70
2023-01-09T18:22:19.257Z,98.70
2023-01-09T18:24:48.618Z,98.70
2023-01-09T18:27:16.722Z,98.50
2023-01-09T18:29:44.712Z,98.60
2023-01-09T18:32:13.031Z,98.40
2023-01-09T18:34:41.063Z,99.00
